sensor_id;sensor_type;location;lat;lon;timestamp;pressure;altitude;pressure_sealevel;temperature;humidity
20620;BME280;10469;42.720;23.252;2023-05-07T00:00:37;95120.97;;;10.53;100.00
20620;BME280;10469;42.720;23.252;2023-05-07T00:03:03;95122.47;;;10.49;100.00
20620;BME280;10469;42.720;23.252;2023-05-07T00:05:28;95113.97;;;10.52;100.00
20620;BME280;10469;42.720;23.252;2023-05-07T00:07:54;95114.00;;;10.22;100.00
20620;BME280;10469;42.720;23.252;2023-05-07T00:10:19;95120.47;;;10.14;100.00
20620;BME280;10469;42.720;23.252;2023-05-07T00:12:45;95100.28;;;10.00;100.00
20620;BME280;10469;42.720;23.252;2023-05-07T00:15:11;95126.19;;;10.06;100.00
20620;BME280;10469;42.720;23.252;2023-05-07T00:17:36;95120.22;;;10.04;100.00
20620;BME280;10469;42.720;23.252;2023-05-07T00:20:03;95118.66;;;10.15;100.00
20620;BME280;10469;42.720;23.252;2023-05-07T00:22:30;95114.72;;;9.99;100.00
20620;BME280;10469;42.720;23.252;2023-05-07T00:24:57;95106.44;;;9.89;100.00
20620;BME280;10469;42.720;23.252;2023-05-07T00:27:24;95105.56;;;9.76;100.00
20620;BME280;10469;42.720;23.252;2023-05-07T00:29:49;95118.09;;;9.94;100.00
20620;BME280;10469;42.720;23.252;2023-05-07T00:32:15;95122.59;;;10.12;100.00
20620;BME280;10469;42.720;23.252;2023-05-07T00:34:40;95107.44;;;10.06;100.00
20620;BME280;10469;42.720;23.252;2023-05-07T00:37:06;95116.41;;;10.12;100.00
20620;BME280;10469;42.720;23.252;2023-05-07T00:39:35;95115.47;;;10.06;100.00
20620;BME280;10469;42.720;23.252;2023-05-07T00:42:01;95120.34;;;10.09;100.00
20620;BME280;10469;42.720;23.252;2023-05-07T00:44:28;95124.22;;;10.13;100.00
20620;BME280;10469;42.720;23.252;2023-05-07T00:46:54;95130.03;;;10.10;100.00
20620;BME280;10469;42.720;23.252;2023-05-07T00:49:20;95123.16;;;9.84;100.00
20620;BME280;10469;42.720;23.252;2023-05-07T00:51:46;95113.53;;;9.46;100.00
20620;BME280;10469;42.720;23.252;2023-05-07T00:54:12;95109.66;;;9.42;100.00
20620;BME280;10469;42.720;23.252;2023-05-07T00:56:38;95131.50;;;9.58;100.00
20620;BME280;10469;42.720;23.252;2023-05-07T00:59:05;95121.47;;;9.53;100.00
20620;BME280;10469;42.720;23.252;2023-05-07T01:01:31;95129.22;;;9.61;100.00
20620;BME280;10469;42.720;23.252;2023-05-07T01:03:57;95127.59;;;9.60;100.00
20620;BME280;10469;42.720;23.252;2023-05-07T01:06:24;95128.34;;;9.67;100.00
20620;BME280;10469;42.720;23.252;2023-05-07T01:08:51;95132.03;;;9.66;100.00
20620;BME280;10469;42.720;23.252;2023-05-07T01:11:18;95129.16;;;9.68;100.00
20620;BME280;10469;42.720;23.252;2023-05-07T01:13:46;95133.59;;;9.74;100.00
20620;BME280;10469;42.720;23.252;2023-05-07T01:16:12;95132.53;;;9.75;100.00
20620;BME280;10469;42.720;23.252;2023-05-07T01:18:38;95129.41;;;9.78;100.00
20620;BME280;10469;42.720;23.252;2023-05-07T01:21:05;95126.53;;;9.61;100.00
20620;BME280;10469;42.720;23.252;2023-05-07T01:23:30;95132.78;;;9.55;100.00
20620;BME280;10469;42.720;23.252;2023-05-07T01:25:57;95139.25;;;9.47;100.00
20620;BME280;10469;42.720;23.252;2023-05-07T01:28:23;95127.31;;;9.50;100.00
20620;BME280;10469;42.720;23.252;2023-05-07T01:30:55;95127.75;;;9.47;100.00
20620;BME280;10469;42.720;23.252;2023-05-07T01:33:21;95123.72;;;9.38;100.00
20620;BME280;10469;42.720;23.252;2023-05-07T01:35:50;95127.94;;;9.45;100.00
20620;BME280;10469;42.720;23.252;2023-05-07T01:38:17;95100.44;;;9.38;100.00
20620;BME280;10469;42.720;23.252;2023-05-07T01:40:43;95113.75;;;9.45;100.00
20620;BME280;10469;42.720;23.252;2023-05-07T01:43:09;95124.69;;;9.43;100.00
20620;BME280;10469;42.720;23.252;2023-05-07T01:45:35;95123.63;;;9.44;100.00
20620;BME280;10469;42.720;23.252;2023-05-07T01:48:02;95117.56;;;9.37;100.00
20620;BME280;10469;42.720;23.252;2023-05-07T01:50:28;95118.00;;;9.34;100.00
20620;BME280;10469;42.720;23.252;2023-05-07T01:52:55;95119.03;;;9.33;100.00
20620;BME280;10469;42.720;23.252;2023-05-07T01:55:21;95109.53;;;9.37;100.00
20620;BME280;10469;42.720;23.252;2023-05-07T01:57:47;95119.63;;;9.35;100.00
20620;BME280;10469;42.720;23.252;2023-05-07T02:00:13;95125.78;;;9.36;100.00
20620;BME280;10469;42.720;23.252;2023-05-07T02:02:38;95122.38;;;9.28;100.00
20620;BME280;10469;42.720;23.252;2023-05-07T02:05:04;95103.03;;;9.26;100.00
20620;BME280;10469;42.720;23.252;2023-05-07T02:07:30;95104.75;;;9.21;100.00
20620;BME280;10469;42.720;23.252;2023-05-07T02:09:55;95106.13;;;8.87;100.00
20620;BME280;10469;42.720;23.252;2023-05-07T02:12:22;95098.53;;;8.84;100.00
20620;BME280;10469;42.720;23.252;2023-05-07T02:14:47;95099.28;;;8.72;100.00
20620;BME280;10469;42.720;23.252;2023-05-07T02:17:13;95092.53;;;8.63;100.00
20620;BME280;10469;42.720;23.252;2023-05-07T02:19:39;95083.97;;;8.54;100.00
20620;BME280;10469;42.720;23.252;2023-05-07T02:22:04;95103.97;;;8.52;100.00
20620;BME280;10469;42.720;23.252;2023-05-07T02:24:30;95089.56;;;8.53;100.00
20620;BME280;10469;42.720;23.252;2023-05-07T02:26:56;95103.00;;;8.46;100.00
20620;BME280;10469;42.720;23.252;2023-05-07T02:29:21;95108.94;;;8.42;100.00
20620;BME280;10469;42.720;23.252;2023-05-07T02:31:47;95099.34;;;8.34;100.00
20620;BME280;10469;42.720;23.252;2023-05-07T02:34:16;95113.13;;;8.38;100.00
20620;BME280;10469;42.720;23.252;2023-05-07T02:36:42;95097.31;;;8.29;100.00
20620;BME280;10469;42.720;23.252;2023-05-07T02:39:08;95108.59;;;8.32;100.00
20620;BME280;10469;42.720;23.252;2023-05-07T02:41:33;95097.53;;;8.28;100.00
20620;BME280;10469;42.720;23.252;2023-05-07T02:43:59;95106.13;;;8.37;100.00
20620;BME280;10469;42.720;23.252;2023-05-07T02:46:24;95097.91;;;8.32;100.00
20620;BME280;10469;42.720;23.252;2023-05-07T02:48:50;95106.50;;;8.40;100.00
20620;BME280;10469;42.720;23.252;2023-05-07T02:51:19;95113.25;;;8.68;100.00
20620;BME280;10469;42.720;23.252;2023-05-07T02:53:45;95098.72;;;8.32;100.00
20620;BME280;10469;42.720;23.252;2023-05-07T02:56:11;95110.56;;;8.11;100.00
20620;BME280;10469;42.720;23.252;2023-05-07T02:58:37;95119.78;;;8.15;100.00
20620;BME280;10469;42.720;23.252;2023-05-07T03:01:07;95117.31;;;8.20;100.00
20620;BME280;10469;42.720;23.252;2023-05-07T03:03:32;95128.28;;;8.05;100.00
20620;BME280;10469;42.720;23.252;2023-05-07T03:05:58;95120.66;;;8.09;100.00
20620;BME280;10469;42.720;23.252;2023-05-07T03:08:24;95120.63;;;8.16;100.00
20620;BME280;10469;42.720;23.252;2023-05-07T03:10:49;95127.66;;;8.10;100.00
20620;BME280;10469;42.720;23.252;2023-05-07T03:13:15;95132.56;;;8.13;100.00
20620;BME280;10469;42.720;23.252;2023-05-07T03:15:41;95120.13;;;7.94;100.00
20620;BME280;10469;42.720;23.252;2023-05-07T03:18:06;95125.66;;;7.99;100.00
20620;BME280;10469;42.720;23.252;2023-05-07T03:20:32;95132.16;;;8.10;100.00
20620;BME280;10469;42.720;23.252;2023-05-07T03:22:58;95124.81;;;7.98;100.00
20620;BME280;10469;42.720;23.252;2023-05-07T03:25:23;95135.47;;;8.05;100.00
20620;BME280;10469;42.720;23.252;2023-05-07T03:27:49;95130.94;;;8.12;100.00
20620;BME280;10469;42.720;23.252;2023-05-07T03:30:14;95124.56;;;8.13;100.00
20620;BME280;10469;42.720;23.252;2023-05-07T03:32:40;95136.63;;;8.16;100.00
20620;BME280;10469;42.720;23.252;2023-05-07T03:35:06;95138.25;;;8.23;100.00
20620;BME280;10469;42.720;23.252;2023-05-07T03:37:32;95138.59;;;8.34;100.00
20620;BME280;10469;42.720;23.252;2023-05-07T03:39:57;95142.50;;;8.31;100.00
20620;BME280;10469;42.720;23.252;2023-05-07T03:42:23;95155.06;;;8.30;100.00
20620;BME280;10469;42.720;23.252;2023-05-07T03:44:49;95143.50;;;8.43;100.00
20620;BME280;10469;42.720;23.252;2023-05-07T03:47:15;95137.94;;;8.45;100.00
20620;BME280;10469;42.720;23.252;2023-05-07T03:49:40;95142.31;;;8.64;100.00
20620;BME280;10469;42.720;23.252;2023-05-07T03:52:06;95146.47;;;8.60;100.00
20620;BME280;10469;42.720;23.252;2023-05-07T03:54:32;95146.66;;;8.59;100.00
20620;BME280;10469;42.720;23.252;2023-05-07T03:56:57;95158.84;;;8.79;100.00
20620;BME280;10469;42.720;23.252;2023-05-07T03:59:23;95147.63;;;8.89;100.00
20620;BME280;10469;42.720;23.252;2023-05-07T04:01:48;95154.69;;;9.09;100.00
20620;BME280;10469;42.720;23.252;2023-05-07T04:04:14;95166.59;;;9.31;100.00
20620;BME280;10469;42.720;23.252;2023-05-07T04:06:40;95156.28;;;9.35;100.00
20620;BME280;10469;42.720;23.252;2023-05-07T04:09:06;95168.31;;;9.44;100.00
20620;BME280;10469;42.720;23.252;2023-05-07T04:11:32;95168.09;;;9.45;100.00
20620;BME280;10469;42.720;23.252;2023-05-07T04:13:57;95160.44;;;9.49;100.00
20620;BME280;10469;42.720;23.252;2023-05-07T04:16:23;95157.84;;;9.61;100.00
20620;BME280;10469;42.720;23.252;2023-05-07T04:18:48;95165.66;;;9.80;100.00
20620;BME280;10469;42.720;23.252;2023-05-07T04:21:19;95177.41;;;9.98;100.00
20620;BME280;10469;42.720;23.252;2023-05-07T04:23:46;95183.16;;;10.13;100.00
20620;BME280;10469;42.720;23.252;2023-05-07T04:26:12;95184.56;;;10.34;100.00
20620;BME280;10469;42.720;23.252;2023-05-07T04:28:38;95187.19;;;10.04;100.00
20620;BME280;10469;42.720;23.252;2023-05-07T04:31:04;95197.75;;;10.17;100.00
20620;BME280;10469;42.720;23.252;2023-05-07T04:33:30;95194.34;;;10.59;100.00
20620;BME280;10469;42.720;23.252;2023-05-07T04:35:56;95195.66;;;10.38;100.00
20620;BME280;10469;42.720;23.252;2023-05-07T04:38:22;95198.84;;;9.98;100.00
20620;BME280;10469;42.720;23.252;2023-05-07T04:40:48;95189.34;;;10.74;100.00
20620;BME280;10469;42.720;23.252;2023-05-07T04:43:14;95179.09;;;10.71;100.00
20620;BME280;10469;42.720;23.252;2023-05-07T04:45:41;95183.25;;;11.20;100.00
20620;BME280;10469;42.720;23.252;2023-05-07T04:48:08;95182.22;;;11.45;100.00
20620;BME280;10469;42.720;23.252;2023-05-07T04:50:34;95180.44;;;11.50;100.00
20620;BME280;10469;42.720;23.252;2023-05-07T04:53:00;95188.59;;;11.91;100.00
20620;BME280;10469;42.720;23.252;2023-05-07T04:55:25;95178.72;;;12.08;100.00
20620;BME280;10469;42.720;23.252;2023-05-07T04:57:51;95184.81;;;12.03;100.00
20620;BME280;10469;42.720;23.252;2023-05-07T05:00:17;95186.50;;;11.93;100.00
20620;BME280;10469;42.720;23.252;2023-05-07T05:02:45;95177.16;;;11.84;100.00
20620;BME280;10469;42.720;23.252;2023-05-07T05:05:10;95181.81;;;11.76;100.00
20620;BME280;10469;42.720;23.252;2023-05-07T05:07:37;95185.47;;;12.22;100.00
20620;BME280;10469;42.720;23.252;2023-05-07T05:10:03;95175.22;;;12.08;100.00
20620;BME280;10469;42.720;23.252;2023-05-07T05:12:29;95190.06;;;12.10;100.00
20620;BME280;10469;42.720;23.252;2023-05-07T05:14:55;95179.44;;;12.44;100.00
20620;BME280;10469;42.720;23.252;2023-05-07T05:17:21;95177.50;;;12.56;100.00
20620;BME280;10469;42.720;23.252;2023-05-07T05:19:46;95165.00;;;12.50;100.00
20620;BME280;10469;42.720;23.252;2023-05-07T05:22:12;95176.41;;;13.02;100.00
20620;BME280;10469;42.720;23.252;2023-05-07T05:24:37;95167.53;;;13.02;100.00
20620;BME280;10469;42.720;23.252;2023-05-07T05:27:03;95159.13;;;13.15;100.00
20620;BME280;10469;42.720;23.252;2023-05-07T05:29:29;95174.97;;;13.28;100.00
20620;BME280;10469;42.720;23.252;2023-05-07T05:31:56;95181.16;;;13.46;100.00
20620;BME280;10469;42.720;23.252;2023-05-07T05:34:22;95171.03;;;13.53;100.00
20620;BME280;10469;42.720;23.252;2023-05-07T05:36:47;95176.56;;;13.63;100.00
20620;BME280;10469;42.720;23.252;2023-05-07T05:39:13;95176.13;;;13.33;100.00
20620;BME280;10469;42.720;23.252;2023-05-07T05:41:39;95174.50;;;13.70;100.00
20620;BME280;10469;42.720;23.252;2023-05-07T05:44:06;95189.63;;;14.15;100.00
20620;BME280;10469;42.720;23.252;2023-05-07T05:46:31;95179.72;;;14.43;100.00
20620;BME280;10469;42.720;23.252;2023-05-07T05:48:57;95176.13;;;14.81;100.00
20620;BME280;10469;42.720;23.252;2023-05-07T05:51:22;95178.09;;;15.60;100.00
20620;BME280;10469;42.720;23.252;2023-05-07T05:53:48;95157.31;;;16.18;100.00
20620;BME280;10469;42.720;23.252;2023-05-07T05:56:14;95176.00;;;16.20;100.00
20620;BME280;10469;42.720;23.252;2023-05-07T05:58:40;95176.16;;;16.71;100.00
20620;BME280;10469;42.720;23.252;2023-05-07T06:01:05;95175.44;;;17.21;100.00
20620;BME280;10469;42.720;23.252;2023-05-07T06:03:31;95165.81;;;18.80;100.00
20620;BME280;10469;42.720;23.252;2023-05-07T06:06:00;95133.88;;;20.18;100.00
20620;BME280;10469;42.720;23.252;2023-05-07T06:08:29;95154.81;;;20.84;100.00
20620;BME280;10469;42.720;23.252;2023-05-07T06:10:54;95150.84;;;22.40;89.10
20620;BME280;10469;42.720;23.252;2023-05-07T06:13:20;95153.06;;;22.51;82.21
20620;BME280;10469;42.720;23.252;2023-05-07T06:15:45;95162.78;;;21.70;90.05
20620;BME280;10469;42.720;23.252;2023-05-07T06:18:11;95164.13;;;18.90;100.00
20620;BME280;10469;42.720;23.252;2023-05-07T06:20:36;95165.63;;;17.97;100.00
20620;BME280;10469;42.720;23.252;2023-05-07T06:23:02;95153.16;;;19.73;100.00
20620;BME280;10469;42.720;23.252;2023-05-07T06:25:27;95158.59;;;20.69;100.00
20620;BME280;10469;42.720;23.252;2023-05-07T06:27:53;95146.16;;;19.28;100.00
20620;BME280;10469;42.720;23.252;2023-05-07T06:30:19;95151.09;;;19.55;100.00
20620;BME280;10469;42.720;23.252;2023-05-07T06:32:44;95140.31;;;20.89;96.25
20620;BME280;10469;42.720;23.252;2023-05-07T06:35:10;95136.63;;;20.37;97.45
20620;BME280;10469;42.720;23.252;2023-05-07T06:37:35;95141.44;;;20.69;96.45
20620;BME280;10469;42.720;23.252;2023-05-07T06:40:04;95136.19;;;20.91;95.21
20620;BME280;10469;42.720;23.252;2023-05-07T06:42:30;95114.75;;;19.75;100.00
20620;BME280;10469;42.720;23.252;2023-05-07T06:44:56;95127.56;;;21.03;91.75
20620;BME280;10469;42.720;23.252;2023-05-07T06:47:21;95133.56;;;21.70;90.94
20620;BME280;10469;42.720;23.252;2023-05-07T06:49:47;95126.69;;;20.70;95.78
20620;BME280;10469;42.720;23.252;2023-05-07T06:52:12;95124.59;;;21.18;94.80
20620;BME280;10469;42.720;23.252;2023-05-07T06:54:38;95118.84;;;21.99;88.71
20620;BME280;10469;42.720;23.252;2023-05-07T06:57:03;95115.97;;;23.09;81.90
20620;BME280;10469;42.720;23.252;2023-05-07T06:59:29;95116.59;;;23.73;74.27
20620;BME280;10469;42.720;23.252;2023-05-07T07:01:54;95123.69;;;23.52;72.46
20620;BME280;10469;42.720;23.252;2023-05-07T07:04:20;95103.19;;;21.44;84.26
20620;BME280;10469;42.720;23.252;2023-05-07T07:06:47;95126.38;;;23.43;77.49
20620;BME280;10469;42.720;23.252;2023-05-07T07:09:13;95106.63;;;23.01;77.07
20620;BME280;10469;42.720;23.252;2023-05-07T07:11:38;95096.63;;;24.44;65.14
20620;BME280;10469;42.720;23.252;2023-05-07T07:14:05;95118.00;;;25.34;59.29
20620;BME280;10469;42.720;23.252;2023-05-07T07:16:30;95114.53;;;25.89;59.51
20620;BME280;10469;42.720;23.252;2023-05-07T07:18:56;95113.56;;;25.76;59.34
20620;BME280;10469;42.720;23.252;2023-05-07T07:21:21;95098.34;;;27.14;51.88
20620;BME280;10469;42.720;23.252;2023-05-07T07:23:47;95110.66;;;28.41;48.38
20620;BME280;10469;42.720;23.252;2023-05-07T07:26:12;95100.53;;;26.11;50.78
20620;BME280;10469;42.720;23.252;2023-05-07T07:28:45;95111.81;;;25.71;56.28
20620;BME280;10469;42.720;23.252;2023-05-07T07:31:11;95104.06;;;24.87;58.15
20620;BME280;10469;42.720;23.252;2023-05-07T07:33:37;95104.50;;;23.97;62.15
20620;BME280;10469;42.720;23.252;2023-05-07T07:36:03;95100.13;;;23.65;66.31
20620;BME280;10469;42.720;23.252;2023-05-07T07:38:28;95115.75;;;23.19;73.61
20620;BME280;10469;42.720;23.252;2023-05-07T07:40:54;95109.75;;;23.40;67.80
20620;BME280;10469;42.720;23.252;2023-05-07T07:43:20;95121.38;;;22.50;74.19
20620;BME280;10469;42.720;23.252;2023-05-07T07:45:45;95126.38;;;23.21;74.42
20620;BME280;10469;42.720;23.252;2023-05-07T07:48:11;95117.81;;;23.36;70.96
20620;BME280;10469;42.720;23.252;2023-05-07T07:50:37;95130.41;;;22.87;71.80
20620;BME280;10469;42.720;23.252;2023-05-07T07:53:03;95115.84;;;22.14;76.63
20620;BME280;10469;42.720;23.252;2023-05-07T07:55:28;95118.34;;;23.02;73.80
20620;BME280;10469;42.720;23.252;2023-05-07T07:57:54;95116.97;;;24.77;69.35
20620;BME280;10469;42.720;23.252;2023-05-07T08:00:19;95110.72;;;24.28;67.32
20620;BME280;10469;42.720;23.252;2023-05-07T08:02:45;95117.09;;;23.53;70.96
20620;BME280;10469;42.720;23.252;2023-05-07T08:05:11;95111.63;;;23.75;71.27
20620;BME280;10469;42.720;23.252;2023-05-07T08:07:36;95114.00;;;23.68;74.01
20620;BME280;10469;42.720;23.252;2023-05-07T08:10:02;95114.22;;;23.81;69.97
20620;BME280;10469;42.720;23.252;2023-05-07T08:12:28;95103.00;;;26.04;63.04
20620;BME280;10469;42.720;23.252;2023-05-07T08:14:53;95101.31;;;24.69;62.84
20620;BME280;10469;42.720;23.252;2023-05-07T08:17:19;95100.94;;;23.43;68.11
20620;BME280;10469;42.720;23.252;2023-05-07T08:19:47;95093.56;;;24.45;66.03
20620;BME280;10469;42.720;23.252;2023-05-07T08:22:13;95109.22;;;23.83;72.72
20620;BME280;10469;42.720;23.252;2023-05-07T08:24:39;95094.66;;;24.04;67.79
20620;BME280;10469;42.720;23.252;2023-05-07T08:27:05;95098.28;;;24.71;64.24
20620;BME280;10469;42.720;23.252;2023-05-07T08:29:30;95103.97;;;23.95;66.96
20620;BME280;10469;42.720;23.252;2023-05-07T08:31:56;95092.47;;;24.15;65.62
20620;BME280;10469;42.720;23.252;2023-05-07T08:34:22;95087.03;;;23.84;62.61
20620;BME280;10469;42.720;23.252;2023-05-07T08:36:47;95091.38;;;23.85;65.51
20620;BME280;10469;42.720;23.252;2023-05-07T08:39:15;95090.16;;;26.25;55.92
20620;BME280;10469;42.720;23.252;2023-05-07T08:41:44;95093.88;;;25.83;55.28
20620;BME280;10469;42.720;23.252;2023-05-07T08:44:13;95084.53;;;25.58;56.11
20620;BME280;10469;42.720;23.252;2023-05-07T08:46:41;95058.94;;;27.22;47.68
20620;BME280;10469;42.720;23.252;2023-05-07T08:49:07;95076.19;;;26.01;51.20
20620;BME280;10469;42.720;23.252;2023-05-07T08:51:33;95072.72;;;25.74;50.30
20620;BME280;10469;42.720;23.252;2023-05-07T08:53:59;95082.88;;;27.43;48.11
20620;BME280;10469;42.720;23.252;2023-05-07T08:56:26;95069.19;;;29.14;43.04
20620;BME280;10469;42.720;23.252;2023-05-07T08:58:52;95078.66;;;27.24;47.39
20620;BME280;10469;42.720;23.252;2023-05-07T09:01:21;95065.00;;;27.49;46.51
20620;BME280;10469;42.720;23.252;2023-05-07T09:03:47;95057.16;;;29.07;41.92
20620;BME280;10469;42.720;23.252;2023-05-07T09:06:13;95049.06;;;31.58;37.20
20620;BME280;10469;42.720;23.252;2023-05-07T09:08:38;95051.50;;;32.02;35.92
20620;BME280;10469;42.720;23.252;2023-05-07T09:11:04;95057.56;;;30.91;36.64
20620;BME280;10469;42.720;23.252;2023-05-07T09:13:29;95051.25;;;30.40;36.31
20620;BME280;10469;42.720;23.252;2023-05-07T09:15:55;95050.47;;;28.95;38.33
20620;BME280;10469;42.720;23.252;2023-05-07T09:18:24;95043.09;;;28.47;40.35
20620;BME280;10469;42.720;23.252;2023-05-07T09:20:50;95041.91;;;30.80;35.59
20620;BME280;10469;42.720;23.252;2023-05-07T09:23:16;95035.84;;;32.13;33.33
20620;BME280;10469;42.720;23.252;2023-05-07T09:25:41;95030.34;;;31.94;33.40
20620;BME280;10469;42.720;23.252;2023-05-07T09:28:07;95031.78;;;32.83;31.68
20620;BME280;10469;42.720;23.252;2023-05-07T09:30:34;95033.63;;;29.69;34.28
20620;BME280;10469;42.720;23.252;2023-05-07T09:33:02;95023.16;;;29.18;35.95
20620;BME280;10469;42.720;23.252;2023-05-07T09:35:28;95030.09;;;31.21;34.17
20620;BME280;10469;42.720;23.252;2023-05-07T09:37:55;95039.88;;;30.96;31.30
20620;BME280;10469;42.720;23.252;2023-05-07T09:40:22;95036.19;;;28.41;36.26
20620;BME280;10469;42.720;23.252;2023-05-07T09:42:48;95038.13;;;26.92;39.47
20620;BME280;10469;42.720;23.252;2023-05-07T09:45:15;95021.81;;;26.87;39.53
20620;BME280;10469;42.720;23.252;2023-05-07T09:47:42;95022.66;;;26.07;40.66
20620;BME280;10469;42.720;23.252;2023-05-07T09:50:10;95025.38;;;26.66;40.51
20620;BME280;10469;42.720;23.252;2023-05-07T09:52:39;95019.28;;;26.61;39.59
20620;BME280;10469;42.720;23.252;2023-05-07T09:55:07;95013.59;;;27.53;37.74
20620;BME280;10469;42.720;23.252;2023-05-07T09:57:33;95016.59;;;26.22;43.13
20620;BME280;10469;42.720;23.252;2023-05-07T10:00:01;95011.97;;;24.51;47.94
20620;BME280;10469;42.720;23.252;2023-05-07T10:02:30;95012.06;;;28.25;36.59
20620;BME280;10469;42.720;23.252;2023-05-07T10:04:56;95014.31;;;27.17;40.31
20620;BME280;10469;42.720;23.252;2023-05-07T10:07:24;95024.16;;;26.55;38.84
20620;BME280;10469;42.720;23.252;2023-05-07T10:09:50;95018.59;;;26.13;40.58
20620;BME280;10469;42.720;23.252;2023-05-07T10:12:17;95006.94;;;25.87;39.21
20620;BME280;10469;42.720;23.252;2023-05-07T10:14:45;95019.31;;;25.46;40.67
20620;BME280;10469;42.720;23.252;2023-05-07T10:17:11;94989.06;;;26.01;38.97
20620;BME280;10469;42.720;23.252;2023-05-07T10:19:37;95013.44;;;24.83;39.94
20620;BME280;10469;42.720;23.252;2023-05-07T10:22:05;95003.88;;;26.39;39.19
20620;BME280;10469;42.720;23.252;2023-05-07T10:24:36;94989.03;;;27.15;36.63
20620;BME280;10469;42.720;23.252;2023-05-07T10:27:05;94988.31;;;28.73;33.19
20620;BME280;10469;42.720;23.252;2023-05-07T10:29:44;94982.66;;;28.42;32.34
20620;BME280;10469;42.720;23.252;2023-05-07T10:34:55;94970.41;;;27.90;31.53
20620;BME280;10469;42.720;23.252;2023-05-07T10:37:22;94960.88;;;30.28;29.26
20620;BME280;10469;42.720;23.252;2023-05-07T10:39:49;94952.72;;;31.29;28.31
20620;BME280;10469;42.720;23.252;2023-05-07T10:42:15;94968.44;;;27.91;30.96
20620;BME280;10469;42.720;23.252;2023-05-07T10:44:41;94967.00;;;28.98;29.78
20620;BME280;10469;42.720;23.252;2023-05-07T10:47:11;94977.69;;;29.44;29.22
20620;BME280;10469;42.720;23.252;2023-05-07T10:52:17;94961.56;;;29.46;29.69
20620;BME280;10469;42.720;23.252;2023-05-07T10:54:43;94951.44;;;30.84;28.46
20620;BME280;10469;42.720;23.252;2023-05-07T10:59:57;94948.16;;;29.16;30.22
20620;BME280;10469;42.720;23.252;2023-05-07T11:02:23;94959.28;;;28.92;30.91
20620;BME280;10469;42.720;23.252;2023-05-07T11:05:20;94957.72;;;29.35;31.50
20620;BME280;10469;42.720;23.252;2023-05-07T11:07:59;94960.94;;;26.88;34.09
20620;BME280;10469;42.720;23.252;2023-05-07T11:10:47;94964.44;;;26.35;35.63
20620;BME280;10469;42.720;23.252;2023-05-07T11:13:14;94965.03;;;25.90;35.48
20620;BME280;10469;42.720;23.252;2023-05-07T11:15:48;94963.50;;;25.71;35.58
20620;BME280;10469;42.720;23.252;2023-05-07T11:18:15;94945.63;;;27.20;34.69
20620;BME280;10469;42.720;23.252;2023-05-07T11:20:49;94942.44;;;28.41;32.99
20620;BME280;10469;42.720;23.252;2023-05-07T11:26:10;94943.22;;;29.54;32.16
20620;BME280;10469;42.720;23.252;2023-05-07T11:28:41;94943.41;;;29.45;30.77
20620;BME280;10469;42.720;23.252;2023-05-07T11:31:08;94937.13;;;30.11;29.83
20620;BME280;10469;42.720;23.252;2023-05-07T11:33:35;94952.94;;;26.62;33.99
20620;BME280;10469;42.720;23.252;2023-05-07T11:36:03;94940.47;;;27.31;32.66
20620;BME280;10469;42.720;23.252;2023-05-07T11:38:29;94928.19;;;27.41;32.13
20620;BME280;10469;42.720;23.252;2023-05-07T11:40:58;94942.06;;;26.45;32.18
20620;BME280;10469;42.720;23.252;2023-05-07T11:43:29;94934.63;;;26.66;32.80
20620;BME280;10469;42.720;23.252;2023-05-07T11:45:54;94936.75;;;24.95;34.70
20620;BME280;10469;42.720;23.252;2023-05-07T11:48:29;94916.78;;;24.34;35.30
20620;BME280;10469;42.720;23.252;2023-05-07T11:53:28;94929.06;;;25.44;35.57
20620;BME280;10469;42.720;23.252;2023-05-07T11:56:00;94925.03;;;24.43;39.55
20620;BME280;10469;42.720;23.252;2023-05-07T11:58:25;94926.69;;;24.44;38.27
20620;BME280;10469;42.720;23.252;2023-05-07T12:00:52;94929.53;;;24.30;38.74
20620;BME280;10469;42.720;23.252;2023-05-07T12:03:18;94926.94;;;24.77;39.12
20620;BME280;10469;42.720;23.252;2023-05-07T12:05:45;94914.56;;;24.36;37.02
20620;BME280;10469;42.720;23.252;2023-05-07T12:08:14;94903.78;;;24.40;36.86
20620;BME280;10469;42.720;23.252;2023-05-07T12:10:44;94909.56;;;24.47;36.57
20620;BME280;10469;42.720;23.252;2023-05-07T12:13:20;94919.19;;;24.88;36.12
20620;BME280;10469;42.720;23.252;2023-05-07T12:15:46;94915.97;;;24.77;36.58
20620;BME280;10469;42.720;23.252;2023-05-07T12:18:12;94895.38;;;23.93;36.86
20620;BME280;10469;42.720;23.252;2023-05-07T12:20:39;94910.94;;;23.66;37.97
20620;BME280;10469;42.720;23.252;2023-05-07T12:23:05;94901.91;;;23.66;37.50
20620;BME280;10469;42.720;23.252;2023-05-07T12:25:38;94896.59;;;23.69;39.06
20620;BME280;10469;42.720;23.252;2023-05-07T12:28:04;94898.56;;;23.38;37.32
20620;BME280;10469;42.720;23.252;2023-05-07T12:30:37;94887.94;;;23.27;38.68
20620;BME280;10469;42.720;23.252;2023-05-07T12:33:03;94882.94;;;23.29;38.57
20620;BME280;10469;42.720;23.252;2023-05-07T12:35:30;94893.00;;;23.60;38.80
20620;BME280;10469;42.720;23.252;2023-05-07T12:37:59;94893.22;;;23.72;38.44
20620;BME280;10469;42.720;23.252;2023-05-07T12:40:40;94897.44;;;23.96;39.55
20620;BME280;10469;42.720;23.252;2023-05-07T12:43:06;94873.44;;;24.27;39.61
20620;BME280;10469;42.720;23.252;2023-05-07T12:45:36;94875.84;;;23.94;40.22
20620;BME280;10469;42.720;23.252;2023-05-07T12:48:03;94878.59;;;24.12;40.57
20620;BME280;10469;42.720;23.252;2023-05-07T12:50:32;94870.63;;;23.58;42.32
20620;BME280;10469;42.720;23.252;2023-05-07T12:52:58;94865.72;;;24.12;40.82
20620;BME280;10469;42.720;23.252;2023-05-07T12:55:24;94859.75;;;23.93;39.21
20620;BME280;10469;42.720;23.252;2023-05-07T12:57:50;94865.88;;;24.07;40.63